sensor_id;sensor_type;location;lat;lon;timestamp;temperature;humidity
13808;DHT22;40769;51.512;5.494;2022-08-16T00:00:13;24.60;99.90
13808;DHT22;40769;51.512;5.494;2022-08-16T00:02:40;24.50;99.90
13808;DHT22;40769;51.512;5.494;2022-08-16T00:05:09;24.50;99.90
13808;DHT22;40769;51.512;5.494;2022-08-16T00:07:36;24.40;99.90
13808;DHT22;40769;51.512;5.494;2022-08-16T00:10:02;24.30;99.90
13808;DHT22;40769;51.512;5.494;2022-08-16T00:12:29;24.30;99.90
13808;DHT22;40769;51.512;5.494;2022-08-16T00:14:57;24.20;99.90
13808;DHT22;40769;51.512;5.494;2022-08-16T00:17:24;24.20;99.90
13808;DHT22;40769;51.512;5.494;2022-08-16T00:19:50;24.10;99.90
13808;DHT22;40769;51.512;5.494;2022-08-16T00:22:15;24.10;99.90
13808;DHT22;40769;51.512;5.494;2022-08-16T00:24:43;24.10;99.90
13808;DHT22;40769;51.512;5.494;2022-08-16T00:27:09;24.00;99.90
13808;DHT22;40769;51.512;5.494;2022-08-16T00:29:34;24.00;99.90
13808;DHT22;40769;51.512;5.494;2022-08-16T00:32:02;23.90;99.90
13808;DHT22;40769;51.512;5.494;2022-08-16T00:34:29;23.90;99.90
13808;DHT22;40769;51.512;5.494;2022-08-16T00:36:54;23.90;99.90
13808;DHT22;40769;51.512;5.494;2022-08-16T00:39:20;23.80;99.90
13808;DHT22;40769;51.512;5.494;2022-08-16T00:41:47;23.80;99.90
13808;DHT22;40769;51.512;5.494;2022-08-16T00:44:13;23.70;99.90
13808;DHT22;40769;51.512;5.494;2022-08-16T00:47:00;23.70;99.90
13808;DHT22;40769;51.512;5.494;2022-08-16T00:49:29;23.60;99.90
13808;DHT22;40769;51.512;5.494;2022-08-16T00:51:55;23.60;99.90
13808;DHT22;40769;51.512;5.494;2022-08-16T00:54:23;23.60;99.90
13808;DHT22;40769;51.512;5.494;2022-08-16T00:56:50;23.60;99.90
13808;DHT22;40769;51.512;5.494;2022-08-16T00:59:18;23.60;99.90
13808;DHT22;40769;51.512;5.494;2022-08-16T01:01:45;23.50;99.90
13808;DHT22;40769;51.512;5.494;2022-08-16T01:04:12;23.50;99.90
13808;DHT22;40769;51.512;5.494;2022-08-16T01:06:38;23.50;99.90
13808;DHT22;40769;51.512;5.494;2022-08-16T01:09:05;23.50;99.90
13808;DHT22;40769;51.512;5.494;2022-08-16T01:11:33;23.50;99.90
13808;DHT22;40769;51.512;5.494;2022-08-16T01:14:17;23.50;99.90
13808;DHT22;40769;51.512;5.494;2022-08-16T01:16:44;23.40;99.90
13808;DHT22;40769;51.512;5.494;2022-08-16T01:19:19;23.40;99.90
13808;DHT22;40769;51.512;5.494;2022-08-16T01:22:26;23.60;99.90
13808;DHT22;40769;51.512;5.494;2022-08-16T01:25:11;23.40;99.90
13808;DHT22;40769;51.512;5.494;2022-08-16T01:27:50;23.40;99.90
13808;DHT22;40769;51.512;5.494;2022-08-16T01:30:30;23.40;99.90
13808;DHT22;40769;51.512;5.494;2022-08-16T01:32:58;23.30;99.90
13808;DHT22;40769;51.512;5.494;2022-08-16T01:35:29;23.30;99.90
13808;DHT22;40769;51.512;5.494;2022-08-16T01:38:04;23.30;99.90
13808;DHT22;40769;51.512;5.494;2022-08-16T01:40:37;23.30;99.90
13808;DHT22;40769;51.512;5.494;2022-08-16T01:43:03;23.30;99.90
13808;DHT22;40769;51.512;5.494;2022-08-16T01:45:29;23.30;99.90
13808;DHT22;40769;51.512;5.494;2022-08-16T01:47:54;23.40;99.90
13808;DHT22;40769;51.512;5.494;2022-08-16T01:50:21;23.40;99.90
13808;DHT22;40769;51.512;5.494;2022-08-16T01:52:47;23.40;99.90
13808;DHT22;40769;51.512;5.494;2022-08-16T01:55:16;23.30;99.90
13808;DHT22;40769;51.512;5.494;2022-08-16T01:57:42;23.20;99.90
13808;DHT22;40769;51.512;5.494;2022-08-16T02:00:08;23.30;99.90
13808;DHT22;40769;51.512;5.494;2022-08-16T02:02:37;23.30;99.90
13808;DHT22;40769;51.512;5.494;2022-08-16T02:05:03;23.20;99.90
13808;DHT22;40769;51.512;5.494;2022-08-16T02:07:30;23.20;99.90
13808;DHT22;40769;51.512;5.494;2022-08-16T02:09:56;23.20;99.90
13808;DHT22;40769;51.512;5.494;2022-08-16T02:12:22;23.10;99.90
13808;DHT22;40769;51.512;5.494;2022-08-16T02:14:47;23.10;99.90
13808;DHT22;40769;51.512;5.494;2022-08-16T02:17:13;23.10;99.90
13808;DHT22;40769;51.512;5.494;2022-08-16T02:19:40;23.00;99.90
13808;DHT22;40769;51.512;5.494;2022-08-16T02:22:11;23.00;99.90
13808;DHT22;40769;51.512;5.494;2022-08-16T02:24:38;23.00;99.90
13808;DHT22;40769;51.512;5.494;2022-08-16T02:27:04;23.00;99.90
13808;DHT22;40769;51.512;5.494;2022-08-16T02:29:30;23.00;99.90
13808;DHT22;40769;51.512;5.494;2022-08-16T02:31:55;22.90;99.90
13808;DHT22;40769;51.512;5.494;2022-08-16T02:34:21;22.90;99.90
13808;DHT22;40769;51.512;5.494;2022-08-16T02:36:47;22.80;99.90
13808;DHT22;40769;51.512;5.494;2022-08-16T02:39:14;22.80;99.90
13808;DHT22;40769;51.512;5.494;2022-08-16T02:41:42;22.80;99.90
13808;DHT22;40769;51.512;5.494;2022-08-16T02:44:10;22.80;99.90
13808;DHT22;40769;51.512;5.494;2022-08-16T02:46:36;22.70;99.90
13808;DHT22;40769;51.512;5.494;2022-08-16T02:49:03;22.70;99.90
13808;DHT22;40769;51.512;5.494;2022-08-16T02:51:28;22.70;99.90
13808;DHT22;40769;51.512;5.494;2022-08-16T02:53:54;22.60;99.90
13808;DHT22;40769;51.512;5.494;2022-08-16T02:56:20;22.60;99.90
13808;DHT22;40769;51.512;5.494;2022-08-16T02:58:50;22.60;99.90
13808;DHT22;40769;51.512;5.494;2022-08-16T03:01:19;22.50;99.90
13808;DHT22;40769;51.512;5.494;2022-08-16T03:03:46;22.50;99.90
13808;DHT22;40769;51.512;5.494;2022-08-16T03:06:12;22.50;99.90
13808;DHT22;40769;51.512;5.494;2022-08-16T03:08:39;22.50;99.90
13808;DHT22;40769;51.512;5.494;2022-08-16T03:11:04;22.40;99.90
13808;DHT22;40769;51.512;5.494;2022-08-16T03:13:30;22.40;99.90
13808;DHT22;40769;51.512;5.494;2022-08-16T03:15:56;22.40;99.90
13808;DHT22;40769;51.512;5.494;2022-08-16T03:18:22;22.30;99.90
13808;DHT22;40769;51.512;5.494;2022-08-16T03:20:48;22.30;99.90
13808;DHT22;40769;51.512;5.494;2022-08-16T03:23:14;22.30;99.90
13808;DHT22;40769;51.512;5.494;2022-08-16T03:25:39;22.20;99.90
13808;DHT22;40769;51.512;5.494;2022-08-16T03:28:06;22.20;99.90
13808;DHT22;40769;51.512;5.494;2022-08-16T03:30:34;22.20;99.90
13808;DHT22;40769;51.512;5.494;2022-08-16T03:33:00;22.20;99.90
13808;DHT22;40769;51.512;5.494;2022-08-16T03:35:29;22.20;99.90
13808;DHT22;40769;51.512;5.494;2022-08-16T03:37:58;22.30;99.90
13808;DHT22;40769;51.512;5.494;2022-08-16T03:40:25;22.30;99.90
13808;DHT22;40769;51.512;5.494;2022-08-16T03:42:51;22.30;99.90
13808;DHT22;40769;51.512;5.494;2022-08-16T03:45:16;22.30;99.90
13808;DHT22;40769;51.512;5.494;2022-08-16T03:47:45;22.40;99.90
13808;DHT22;40769;51.512;5.494;2022-08-16T03:50:11;22.40;99.90
13808;DHT22;40769;51.512;5.494;2022-08-16T03:52:39;22.40;99.90
13808;DHT22;40769;51.512;5.494;2022-08-16T03:55:07;22.50;99.90
13808;DHT22;40769;51.512;5.494;2022-08-16T03:57:33;22.50;99.90
13808;DHT22;40769;51.512;5.494;2022-08-16T03:59:59;22.50;99.90
13808;DHT22;40769;51.512;5.494;2022-08-16T04:02:24;22.50;99.90
13808;DHT22;40769;51.512;5.494;2022-08-16T04:04:50;22.60;99.90
13808;DHT22;40769;51.512;5.494;2022-08-16T04:07:18;22.50;99.90
13808;DHT22;40769;51.512;5.494;2022-08-16T04:09:44;22.50;99.90
13808;DHT22;40769;51.512;5.494;2022-08-16T04:12:11;22.50;99.90
13808;DHT22;40769;51.512;5.494;2022-08-16T04:14:37;22.50;99.90
13808;DHT22;40769;51.512;5.494;2022-08-16T04:17:04;22.50;99.90
13808;DHT22;40769;51.512;5.494;2022-08-16T04:19:29;22.50;99.90
13808;DHT22;40769;51.512;5.494;2022-08-16T04:21:55;22.40;99.90
13808;DHT22;40769;51.512;5.494;2022-08-16T04:24:21;22.40;99.90
13808;DHT22;40769;51.512;5.494;2022-08-16T04:26:47;22.40;99.90
13808;DHT22;40769;51.512;5.494;2022-08-16T04:29:15;22.40;99.90
13808;DHT22;40769;51.512;5.494;2022-08-16T04:31:40;22.30;99.90
13808;DHT22;40769;51.512;5.494;2022-08-16T04:34:06;22.40;99.90
13808;DHT22;40769;51.512;5.494;2022-08-16T04:36:31;22.40;99.90
13808;DHT22;40769;51.512;5.494;2022-08-16T04:38:57;22.40;99.90
13808;DHT22;40769;51.512;5.494;2022-08-16T04:41:23;22.40;99.90
13808;DHT22;40769;51.512;5.494;2022-08-16T04:43:49;22.40;99.90
13808;DHT22;40769;51.512;5.494;2022-08-16T04:46:15;22.50;99.90
13808;DHT22;40769;51.512;5.494;2022-08-16T04:48:42;22.50;99.90
13808;DHT22;40769;51.512;5.494;2022-08-16T04:51:09;22.60;99.90
13808;DHT22;40769;51.512;5.494;2022-08-16T04:53:35;22.60;99.90
13808;DHT22;40769;51.512;5.494;2022-08-16T04:56:01;22.60;99.90
13808;DHT22;40769;51.512;5.494;2022-08-16T04:58:27;22.60;99.90
13808;DHT22;40769;51.512;5.494;2022-08-16T05:00:53;22.60;99.90
13808;DHT22;40769;51.512;5.494;2022-08-16T05:03:19;22.60;99.90
13808;DHT22;40769;51.512;5.494;2022-08-16T05:05:46;22.50;99.90
13808;DHT22;40769;51.512;5.494;2022-08-16T05:08:12;22.50;99.90
13808;DHT22;40769;51.512;5.494;2022-08-16T05:10:38;22.50;99.90
13808;DHT22;40769;51.512;5.494;2022-08-16T05:13:05;22.50;99.90
13808;DHT22;40769;51.512;5.494;2022-08-16T05:15:33;22.50;99.90
13808;DHT22;40769;51.512;5.494;2022-08-16T05:17:59;22.50;99.90
13808;DHT22;40769;51.512;5.494;2022-08-16T05:20:26;22.50;99.90
13808;DHT22;40769;51.512;5.494;2022-08-16T05:22:52;22.50;99.90
13808;DHT22;40769;51.512;5.494;2022-08-16T05:25:18;22.50;99.90
13808;DHT22;40769;51.512;5.494;2022-08-16T05:27:43;22.50;99.90
13808;DHT22;40769;51.512;5.494;2022-08-16T05:30:11;22.50;99.90
13808;DHT22;40769;51.512;5.494;2022-08-16T05:32:38;22.50;99.90
13808;DHT22;40769;51.512;5.494;2022-08-16T05:35:05;22.60;99.90
13808;DHT22;40769;51.512;5.494;2022-08-16T05:37:33;22.80;99.90
13808;DHT22;40769;51.512;5.494;2022-08-16T05:39:58;22.70;99.90
13808;DHT22;40769;51.512;5.494;2022-08-16T05:42:24;22.60;99.90
13808;DHT22;40769;51.512;5.494;2022-08-16T05:44:50;22.70;99.90
13808;DHT22;40769;51.512;5.494;2022-08-16T05:47:15;22.70;99.90
13808;DHT22;40769;51.512;5.494;2022-08-16T05:49:41;22.80;99.90
13808;DHT22;40769;51.512;5.494;2022-08-16T05:52:10;22.80;99.90
13808;DHT22;40769;51.512;5.494;2022-08-16T05:54:36;22.80;99.90
13808;DHT22;40769;51.512;5.494;2022-08-16T05:57:03;22.90;99.90
13808;DHT22;40769;51.512;5.494;2022-08-16T05:59:30;22.90;99.90
13808;DHT22;40769;51.512;5.494;2022-08-16T06:01:55;22.90;99.90
13808;DHT22;40769;51.512;5.494;2022-08-16T06:04:22;22.90;99.90
13808;DHT22;40769;51.512;5.494;2022-08-16T06:06:48;23.00;99.90
13808;DHT22;40769;51.512;5.494;2022-08-16T06:09:14;23.00;99.90
13808;DHT22;40769;51.512;5.494;2022-08-16T06:11:41;23.00;99.90
13808;DHT22;40769;51.512;5.494;2022-08-16T06:14:06;23.20;99.90
13808;DHT22;40769;51.512;5.494;2022-08-16T06:16:32;23.20;99.90
13808;DHT22;40769;51.512;5.494;2022-08-16T06:18:58;23.30;99.90
13808;DHT22;40769;51.512;5.494;2022-08-16T06:21:24;23.40;99.90
13808;DHT22;40769;51.512;5.494;2022-08-16T06:23:50;23.60;99.90
13808;DHT22;40769;51.512;5.494;2022-08-16T06:26:17;23.70;99.90
13808;DHT22;40769;51.512;5.494;2022-08-16T06:28:42;23.90;99.90
13808;DHT22;40769;51.512;5.494;2022-08-16T06:31:09;24.10;99.90
13808;DHT22;40769;51.512;5.494;2022-08-16T06:33:35;24.30;99.90
13808;DHT22;40769;51.512;5.494;2022-08-16T06:36:01;24.50;99.90
13808;DHT22;40769;51.512;5.494;2022-08-16T06:38:27;24.70;99.90
13808;DHT22;40769;51.512;5.494;2022-08-16T06:40:53;24.90;99.90
13808;DHT22;40769;51.512;5.494;2022-08-16T06:43:19;25.10;99.90
13808;DHT22;40769;51.512;5.494;2022-08-16T06:45:46;25.30;99.90
13808;DHT22;40769;51.512;5.494;2022-08-16T06:48:12;25.50;99.90
13808;DHT22;40769;51.512;5.494;2022-08-16T06:50:38;25.70;99.90
13808;DHT22;40769;51.512;5.494;2022-08-16T06:53:04;25.90;99.90
13808;DHT22;40769;51.512;5.494;2022-08-16T06:55:31;26.00;99.90
13808;DHT22;40769;51.512;5.494;2022-08-16T06:57:59;26.30;99.90
13808;DHT22;40769;51.512;5.494;2022-08-16T07:00:26;26.40;99.90
13808;DHT22;40769;51.512;5.494;2022-08-16T07:02:52;26.60;99.90
13808;DHT22;40769;51.512;5.494;2022-08-16T07:05:18;26.70;99.90
13808;DHT22;40769;51.512;5.494;2022-08-16T07:07:46;26.90;99.90
13808;DHT22;40769;51.512;5.494;2022-08-16T07:10:13;27.10;99.90
13808;DHT22;40769;51.512;5.494;2022-08-16T07:12:39;27.10;99.90
13808;DHT22;40769;51.512;5.494;2022-08-16T07:15:05;27.30;99.90
13808;DHT22;40769;51.512;5.494;2022-08-16T07:17:32;27.40;99.90
13808;DHT22;40769;51.512;5.494;2022-08-16T07:19:58;27.60;99.90
13808;DHT22;40769;51.512;5.494;2022-08-16T07:22:25;27.70;99.90
13808;DHT22;40769;51.512;5.494;2022-08-16T07:24:50;27.90;99.90
13808;DHT22;40769;51.512;5.494;2022-08-16T07:27:16;28.10;99.90
13808;DHT22;40769;51.512;5.494;2022-08-16T07:29:42;28.20;99.90
13808;DHT22;40769;51.512;5.494;2022-08-16T07:32:09;28.40;99.90
13808;DHT22;40769;51.512;5.494;2022-08-16T07:34:34;28.50;99.90
13808;DHT22;40769;51.512;5.494;2022-08-16T07:37:08;28.70;99.90
13808;DHT22;40769;51.512;5.494;2022-08-16T07:39:34;28.80;99.90
13808;DHT22;40769;51.512;5.494;2022-08-16T07:42:00;29.00;99.90
13808;DHT22;40769;51.512;5.494;2022-08-16T07:44:26;29.20;99.90
13808;DHT22;40769;51.512;5.494;2022-08-16T07:46:52;29.30;99.90
13808;DHT22;40769;51.512;5.494;2022-08-16T07:49:18;29.50;99.90
13808;DHT22;40769;51.512;5.494;2022-08-16T07:51:44;29.70;99.90
13808;DHT22;40769;51.512;5.494;2022-08-16T07:54:10;29.90;99.90
13808;DHT22;40769;51.512;5.494;2022-08-16T07:56:36;30.00;99.90
13808;DHT22;40769;51.512;5.494;2022-08-16T07:59:02;30.10;99.90
13808;DHT22;40769;51.512;5.494;2022-08-16T08:01:28;30.20;99.90
13808;DHT22;40769;51.512;5.494;2022-08-16T08:03:55;30.50;99.90
13808;DHT22;40769;51.512;5.494;2022-08-16T08:06:22;30.50;99.90
13808;DHT22;40769;51.512;5.494;2022-08-16T08:08:48;30.50;99.90
13808;DHT22;40769;51.512;5.494;2022-08-16T08:11:14;30.60;99.90
13808;DHT22;40769;51.512;5.494;2022-08-16T08:13:41;30.70;99.90
13808;DHT22;40769;51.512;5.494;2022-08-16T08:16:07;30.80;99.90
13808;DHT22;40769;51.512;5.494;2022-08-16T08:18:34;30.90;99.90
13808;DHT22;40769;51.512;5.494;2022-08-16T08:21:00;31.10;99.90
13808;DHT22;40769;51.512;5.494;2022-08-16T08:23:26;31.20;99.90
13808;DHT22;40769;51.512;5.494;2022-08-16T08:25:51;31.30;99.90
13808;DHT22;40769;51.512;5.494;2022-08-16T08:28:17;31.40;99.90
13808;DHT22;40769;51.512;5.494;2022-08-16T08:30:43;31.50;99.60
13808;DHT22;40769;51.512;5.494;2022-08-16T08:33:09;31.60;99.10
13808;DHT22;40769;51.512;5.494;2022-08-16T08:35:35;31.70;98.40
13808;DHT22;40769;51.512;5.494;2022-08-16T08:38:01;31.70;98.10
13808;DHT22;40769;51.512;5.494;2022-08-16T08:40:28;31.80;97.40
13808;DHT22;40769;51.512;5.494;2022-08-16T08:42:58;31.90;96.70
13808;DHT22;40769;51.512;5.494;2022-08-16T08:45:24;32.00;95.80
13808;DHT22;40769;51.512;5.494;2022-08-16T08:47:50;32.00;95.70
13808;DHT22;40769;51.512;5.494;2022-08-16T08:50:16;32.00;95.10
13808;DHT22;40769;51.512;5.494;2022-08-16T08:52:44;32.00;94.80
13808;DHT22;40769;51.512;5.494;2022-08-16T08:55:12;32.10;94.70
13808;DHT22;40769;51.512;5.494;2022-08-16T08:57:43;32.20;94.50
13808;DHT22;40769;51.512;5.494;2022-08-16T09:00:11;32.30;94.10
13808;DHT22;40769;51.512;5.494;2022-08-16T09:02:37;32.40;93.50
13808;DHT22;40769;51.512;5.494;2022-08-16T09:05:03;32.50;93.10
13808;DHT22;40769;51.512;5.494;2022-08-16T09:07:29;32.60;92.80
13808;DHT22;40769;51.512;5.494;2022-08-16T09:09:55;32.70;92.40
13808;DHT22;40769;51.512;5.494;2022-08-16T09:12:20;32.90;92.20
13808;DHT22;40769;51.512;5.494;2022-08-16T09:14:46;33.00;91.90
13808;DHT22;40769;51.512;5.494;2022-08-16T09:17:12;33.20;91.10
13808;DHT22;40769;51.512;5.494;2022-08-16T09:19:38;33.20;90.30
13808;DHT22;40769;51.512;5.494;2022-08-16T09:22:05;33.20;89.40
13808;DHT22;40769;51.512;5.494;2022-08-16T09:24:31;33.20;88.70
13808;DHT22;40769;51.512;5.494;2022-08-16T09:26:57;33.20;88.20
13808;DHT22;40769;51.512;5.494;2022-08-16T09:29:24;33.20;88.00
13808;DHT22;40769;51.512;5.494;2022-08-16T09:31:49;33.30;87.60
13808;DHT22;40769;51.512;5.494;2022-08-16T09:34:15;33.40;87.70
13808;DHT22;40769;51.512;5.494;2022-08-16T09:36:41;33.50;86.70
13808;DHT22;40769;51.512;5.494;2022-08-16T09:39:07;33.60;85.50
13808;DHT22;40769;51.512;5.494;2022-08-16T09:41:33;33.70;85.10
13808;DHT22;40769;51.512;5.494;2022-08-16T09:43:59;33.80;84.30
13808;DHT22;40769;51.512;5.494;2022-08-16T09:46:24;33.90;83.20
13808;DHT22;40769;51.512;5.494;2022-08-16T09:48:51;34.00;81.80
13808;DHT22;40769;51.512;5.494;2022-08-16T09:51:19;34.10;80.40
13808;DHT22;40769;51.512;5.494;2022-08-16T09:53:51;34.10;79.90
13808;DHT22;40769;51.512;5.494;2022-08-16T09:56:33;34.20;79.70
13808;DHT22;40769;51.512;5.494;2022-08-16T09:59:03;34.20;77.80
13808;DHT22;40769;51.512;5.494;2022-08-16T10:01:29;34.20;77.20
13808;DHT22;40769;51.512;5.494;2022-08-16T10:03:56;34.30;78.50
13808;DHT22;40769;51.512;5.494;2022-08-16T10:06:23;34.30;77.70
13808;DHT22;40769;51.512;5.494;2022-08-16T10:08:50;34.40;76.80
13808;DHT22;40769;51.512;5.494;2022-08-16T10:11:16;34.50;76.50
13808;DHT22;40769;51.512;5.494;2022-08-16T10:14:01;34.60;75.80
13808;DHT22;40769;51.512;5.494;2022-08-16T10:16:26;34.60;74.10
13808;DHT22;40769;51.512;5.494;2022-08-16T10:18:52;34.70;73.70
13808;DHT22;40769;51.512;5.494;2022-08-16T10:21:18;34.80;72.60
13808;DHT22;40769;51.512;5.494;2022-08-16T10:23:44;34.90;71.70
13808;DHT22;40769;51.512;5.494;2022-08-16T10:26:10;35.00;71.20
13808;DHT22;40769;51.512;5.494;2022-08-16T10:28:36;35.10;70.40
13808;DHT22;40769;51.512;5.494;2022-08-16T10:31:03;35.00;69.60
13808;DHT22;40769;51.512;5.494;2022-08-16T10:33:30;35.10;69.50
13808;DHT22;40769;51.512;5.494;2022-08-16T10:35:56;35.10;69.60
13808;DHT22;40769;51.512;5.494;2022-08-16T10:38:22;35.10;69.00
13808;DHT22;40769;51.512;5.494;2022-08-16T10:40:47;35.10;68.90
13808;DHT22;40769;51.512;5.494;2022-08-16T10:43:13;35.20;68.80
13808;DHT22;40769;51.512;5.494;2022-08-16T10:45:39;35.20;68.90
13808;DHT22;40769;51.512;5.494;2022-08-16T10:48:07;35.30;67.80
13808;DHT22;40769;51.512;5.494;2022-08-16T10:50:35;35.30;67.10
13808;DHT22;40769;51.512;5.494;2022-08-16T10:53:01;35.40;67.10
13808;DHT22;40769;51.512;5.494;2022-08-16T10:55:35;35.50;66.40
13808;DHT22;40769;51.512;5.494;2022-08-16T10:58:03;35.60;66.00
13808;DHT22;40769;51.512;5.494;2022-08-16T11:00:28;35.70;65.50
13808;DHT22;40769;51.512;5.494;2022-08-16T11:02:54;35.90;65.50
13808;DHT22;40769;51.512;5.494;2022-08-16T11:05:19;36.00;65.00
13808;DHT22;40769;51.512;5.494;2022-08-16T11:07:48;36.20;65.30
13808;DHT22;40769;51.512;5.494;2022-08-16T11:10:18;36.30;63.10
13808;DHT22;40769;51.512;5.494;2022-08-16T11:12:44;36.40;62.30
13808;DHT22;40769;51.512;5.494;2022-08-16T11:15:09;36.50;62.20
13808;DHT22;40769;51.512;5.494;2022-08-16T11:17:35;36.50;61.90
13808;DHT22;40769;51.512;5.494;2022-08-16T11:20:06;36.60;61.40
13808;DHT22;40769;51.512;5.494;2022-08-16T11:22:33;36.60;61.40
13808;DHT22;40769;51.512;5.494;2022-08-16T11:24:58;36.50;61.00
13808;DHT22;40769;51.512;5.494;2022-08-16T11:27:24;36.40;61.70
13808;DHT22;40769;51.512;5.494;2022-08-16T11:29:52;36.30;62.00
13808;DHT22;40769;51.512;5.494;2022-08-16T11:32:20;36.20;60.90
13808;DHT22;40769;51.512;5.494;2022-08-16T11:34:46;36.10;60.70
13808;DHT22;40769;51.512;5.494;2022-08-16T11:37:11;35.90;60.60
13808;DHT22;40769;51.512;5.494;2022-08-16T11:39:37;35.80;60.70
13808;DHT22;40769;51.512;5.494;2022-08-16T11:42:03;35.60;60.00
13808;DHT22;40769;51.512;5.494;2022-08-16T11:44:28;35.50;59.80
13808;DHT22;40769;51.512;5.494;2022-08-16T11:46:54;35.40;59.60
13808;DHT22;40769;51.512;5.494;2022-08-16T11:49:19;35.20;59.30
13808;DHT22;40769;51.512;5.494;2022-08-16T11:51:45;35.00;59.10
13808;DHT22;40769;51.512;5.494;2022-08-16T11:54:11;34.70;59.30
13808;DHT22;40769;51.512;5.494;2022-08-16T11:56:37;34.50;59.30
13808;DHT22;40769;51.512;5.494;2022-08-16T11:59:03;34.30;59.70
13808;DHT22;40769;51.512;5.494;2022-08-16T12:01:29;34.10;60.20
13808;DHT22;40769;51.512;5.494;2022-08-16T12:03:54;33.80;60.60
13808;DHT22;40769;51.512;5.494;2022-08-16T12:06:21;33.70;61.10
13808;DHT22;40769;51.512;5.494;2022-08-16T12:08:47;33.60;61.80
13808;DHT22;40769;51.512;5.494;2022-08-16T12:11:14;33.50;62.00
13808;DHT22;40769;51.512;5.494;2022-08-16T12:13:40;33.60;62.60
13808;DHT22;40769;51.512;5.494;2022-08-16T12:16:08;33.70;62.30
13808;DHT22;40769;51.512;5.494;2022-08-16T12:18:35;33.80;62.50
13808;DHT22;40769;51.512;5.494;2022-08-16T12:21:01;34.10;61.20
13808;DHT22;40769;51.512;5.494;2022-08-16T12:23:26;34.30;61.00
13808;DHT22;40769;51.512;5.494;2022-08-16T12:25:52;34.50;59.90
13808;DHT22;40769;51.512;5.494;2022-08-16T12:28:18;34.70;59.60
13808;DHT22;40769;51.512;5.494;2022-08-16T12:30:44;35.00;59.30
13808;DHT22;40769;51.512;5.494;2022-08-16T12:33:13;35.20;59.00
13808;DHT22;40769;51.512;5.494;2022-08-16T12:35:41;35.40;58.80
13808;DHT22;40769;51.512;5.494;2022-08-16T12:38:08;35.50;58.60
13808;DHT22;40769;51.512;5.494;2022-08-16T12:40:37;35.60;58.20
13808;DHT22;40769;51.512;5.494;2022-08-16T12:43:05;35.80;57.80
13808;DHT22;40769;51.512;5.494;2022-08-16T12:45:34;35.90;57.20
13808;DHT22;40769;51.512;5.494;2022-08-16T12:48:00;36.00;57.30
13808;DHT22;40769;51.512;5.494;2022-08-16T12:50:45;36.20;57.00
13808;DHT22;40769;51.512;5.494;2022-08-16T12:53:13;36.40;57.10
13808;DHT22;40769;51.512;5.494;2022-08-16T12:55:39;36.50;56.50
13808;DHT22;40769;51.512;5.494;2022-08-16T12:58:05;36.60;56.70
13808;DHT22;40769;51.512;5.494;2022-08-16T13:00:32;36.80;55.70
13808;DHT22;40769;51.512;5.494;2022-08-16T13:02:59;36.90;55.20
13808;DHT22;40769;51.512;5.494;2022-08-16T13:05:26;37.10;55.60
13808;DHT22;40769;51.512;5.494;2022-08-16T13:07:53;37.20;55.70
13808;DHT22;40769;51.512;5.494;2022-08-16T13:10:23;37.40;55.30
13808;DHT22;40769;51.512;5.494;2022-08-16T13:12:51;37.50;55.00
13808;DHT22;40769;51.512;5.494;2022-08-16T13:15:24;37.70;55.20
13808;DHT22;40769;51.512;5.494;2022-08-16T13:17:50;37.80;54.90
13808;DHT22;40769;51.512;5.494;2022-08-16T13:20:20;37.90;54.40
13808;DHT22;40769;51.512;5.494;2022-08-16T13:22:58;37.90;53.50
13808;DHT22;40769;51.512;5.494;2022-08-16T13:25:25;37.90;52.60
13808;DHT22;40769;51.512;5.494;2022-08-16T13:27:53;37.90;53.10
13808;DHT22;40769;51.512;5.494;2022-08-16T13:30:19;37.90;52.70
13808;DHT22;40769;51.512;5.494;2022-08-16T13:32:45;37.80;53.00
13808;DHT22;40769;51.512;5.494;2022-08-16T13:35:11;37.70;52.80
13808;DHT22;40769;51.512;5.494;2022-08-16T13:37:37;37.50;52.80
13808;DHT22;40769;51.512;5.494;2022-08-16T13:40:04;37.40;53.00
13808;DHT22;40769;51.512;5.494;2022-08-16T13:42:30;37.30;53.00
13808;DHT22;40769;51.512;5.494;2022-08-16T13:44:56;37.30;53.00
13808;DHT22;40769;51.512;5.494;2022-08-16T13:47:23;37.30;52.90
13808;DHT22;40769;51.512;5.494;2022-08-16T13:49:48;37.30;53.10
13808;DHT22;40769;51.512;5.494;2022-08-16T13:52:15;37.30;53.00
13808;DHT22;40769;51.512;5.494;2022-08-16T13:54:41;37.30;52.70
13808;DHT22;40769;51.512;5.494;2022-08-16T13:57:08;37.20;52.50
13808;DHT22;40769;51.512;5.494;2022-08-16T13:59:33;37.20;52.60
13808;DHT22;40769;51.512;5.494;2022-08-16T14:01:59;37.10;52.70
13808;DHT22;40769;51.512;5.494;2022-08-16T14:04:27;37.00;52.60
13808;DHT22;40769;51.512;5.494;2022-08-16T14:06:58;36.80;52.50
13808;DHT22;40769;51.512;5.494;2022-08-16T14:09:24;36.70;52.80
13808;DHT22;40769;51.512;5.494;2022-08-16T14:11:50;36.60;52.80
13808;DHT22;40769;51.512;5.494;2022-08-16T14:14:16;36.40;52.80
13808;DHT22;40769;51.512;5.494;2022-08-16T14:16:42;36.30;53.30
13808;DHT22;40769;51.512;5.494;2022-08-16T14:19:07;36.20;54.20
13808;DHT22;40769;51.512;5.494;2022-08-16T14:21:33;36.10;53.80
13808;DHT22;40769;51.512;5.494;2022-08-16T14:23:59;36.10;53.60
13808;DHT22;40769;51.512;5.494;2022-08-16T14:26:26;36.10;53.50
13808;DHT22;40769;51.512;5.494;2022-08-16T14:28:52;36.10;53.80
13808;DHT22;40769;51.512;5.494;2022-08-16T14:31:17;36.20;53.90
13808;DHT22;40769;51.512;5.494;2022-08-16T14:33:44;36.20;53.80
13808;DHT22;40769;51.512;5.494;2022-08-16T14:36:10;36.30;53.90
13808;DHT22;40769;51.512;5.494;2022-08-16T14:38:36;36.30;53.90
13808;DHT22;40769;51.512;5.494;2022-08-16T14:41:02;36.40;53.50
13808;DHT22;40769;51.512;5.494;2022-08-16T14:43:27;36.40;53.40
13808;DHT22;40769;51.512;5.494;2022-08-16T14:45:53;36.40;53.20
13808;DHT22;40769;51.512;5.494;2022-08-16T14:48:20;36.50;53.40
13808;DHT22;40769;51.512;5.494;2022-08-16T14:50:46;36.50;53.00
13808;DHT22;40769;51.512;5.494;2022-08-16T14:53:11;36.50;53.00
13808;DHT22;40769;51.512;5.494;2022-08-16T14:55:37;36.60;53.20
13808;DHT22;40769;51.512;5.494;2022-08-16T14:58:06;36.60;52.70
13808;DHT22;40769;51.512;5.494;2022-08-16T15:00:33;36.60;52.80
13808;DHT22;40769;51.512;5.494;2022-08-16T15:03:02;36.60;52.70
13808;DHT22;40769;51.512;5.494;2022-08-16T15:05:28;36.60;52.40
13808;DHT22;40769;51.512;5.494;2022-08-16T15:07:54;36.50;52.50
13808;DHT22;40769;51.512;5.494;2022-08-16T15:10:21;36.50;52.80
13808;DHT22;40769;51.512;5.494;2022-08-16T15:12:48;36.50;53.00
13808;DHT22;40769;51.512;5.494;2022-08-16T15:15:17;36.60;53.30
13808;DHT22;40769;51.512;5.494;2022-08-16T15:17:46;36.70;53.20
13808;DHT22;40769;51.512;5.494;2022-08-16T15:20:12;36.70;53.00
13808;DHT22;40769;51.512;5.494;2022-08-16T15:22:44;36.80;52.80
13808;DHT22;40769;51.512;5.494;2022-08-16T15:25:16;36.80;52.70
13808;DHT22;40769;51.512;5.494;2022-08-16T15:27:42;36.80;52.70